Latest Weather Observations for Mulurulu

IDN60801

Issued at 11:33 am EDT Monday 26 October 2020 (issued every 10 minutes, with the page automatically refreshed every 10 minutes)

About weather observations | Map of weather stations | Latest weather observations for NSW | Other Formats
Station Details ID: 047113 Name: MULURULU AWS Lat: -33.34 Lon: 143.40 Height: 78.0 m
Data from the previous 72 hours. | See also: Recent months at Mulurulu
Date/Time
EDT
Temp
°C
App
Temp
°C
Dew
Point
°C
Rel
Hum
%
Delta-T
°C
Wind Press
QNH
hPa
Press
MSL
hPa
Rain since
9am
mm
Dir  Spd
km/h
Gust
km/h
Spd
kts
Gust
kts
26/11:30am 14.1 - 12.7 91 0.8 - - - - - - - 0.8
26/11:00am 13.8 - 13.3 97 0.3 - - - - - - - 0.8
26/10:30am 13.3 - 13.3 100 0.0 - - - - - - - 0.8
26/10:00am 12.8 - 12.8 100 0.0 - - - - - - - 0.6
26/09:30am 12.9 - 12.9 100 0.0 - - - - - - - 0.2
26/09:00am 11.9 - 11.9 100 0.0 - - - - - - - 0.6
26/08:30am 11.0 - 10.5 97 0.3 - - - - - - - 0.0
26/08:00am 10.4 - 8.8 90 0.8 - - - - - - - 0.0
26/07:30am 10.0 - 7.4 84 1.2 - - - - - - - 0.0
26/07:00am 9.6 - 6.1 79 1.6 - - - - - - - 0.0
26/06:30am 9.1 - 5.7 79 1.6 - - - - - - - 0.0
26/06:00am 8.8 - 5.4 79 1.5 - - - - - - - 0.0
26/05:30am 9.1 - 5.5 78 1.6 - - - - - - - 0.0
26/05:00am 8.9 - 5.3 78 1.6 - - - - - - - 0.0
26/04:30am 8.9 - 5.1 77 1.7 - - - - - - - 0.0
26/04:00am 9.0 - 4.8 75 1.9 - - - - - - - 0.0
26/03:30am 8.8 - 4.2 73 2.0 - - - - - - - 0.0
26/03:00am 10.2 - 4.6 68 2.5 - - - - - - - 0.0
26/02:30am 10.1 - 3.8 65 2.8 - - - - - - - 0.0
26/02:00am 10.1 - 3.2 62 3.0 - - - - - - - 0.0
26/01:30am 10.4 - 2.7 59 3.3 - - - - - - - 0.0
26/01:00am 10.7 - 1.8 54 3.8 - - - - - - - 0.0
26/12:30am 11.1 - 1.4 51 4.1 - - - - - - - 0.0
26/12:00am 11.2 - 1.7 52 4.0 - - - - - - - 0.0
 
Date/Time
EDT
Temp
°C
App
Temp
°C
Dew
Point
°C
Rel
Hum
%
Delta-T
°C
Wind Press
QNH
hPa
Press
MSL
hPa
Rain since
9am
mm
Dir  Spd
km/h
Gust
km/h
Spd
kts
Gust
kts
25/11:30pm 11.5 - 1.7 51 4.2 - - - - - - - 0.0
25/11:00pm 11.3 - 2.1 53 3.9 - - - - - - - 0.0
25/10:30pm 12.1 - 1.1 47 4.6 - - - - - - - 0.0
25/10:00pm 12.6 - 1.0 45 4.9 - - - - - - - 0.0
25/09:30pm 13.1 - 0.8 43 5.2 - - - - - - - 0.0
25/09:00pm 14.0 - 0.3 39 5.8 - - - - - - - 0.0
25/08:30pm 14.6 - -0.3 36 6.2 - - - - - - - 0.0
25/08:00pm 14.8 - -0.1 36 6.3 - - - - - - - 0.0
25/07:30pm 15.5 - -0.3 34 6.7 - - - - - - - 0.0
25/07:00pm 16.1 - -0.2 33 6.9 - - - - - - - 0.0
25/06:30pm 16.8 - 0.5 33 7.1 - - - - - - - 0.0
25/06:00pm 16.5 - 0.2 33 7.0 - - - - - - - 0.0
25/05:30pm 17.7 - 1.2 33 7.3 - - - - - - - 0.0
25/05:00pm 16.9 - 0.5 33 7.1 - - - - - - - 0.0
25/04:30pm 16.3 - 0.8 35 6.8 - - - - - - - 0.0
25/04:00pm 17.1 - 1.1 34 7.1 - - - - - - - 0.0
25/03:30pm 16.8 - 0.5 33 7.1 - - - - - - - 0.0
25/03:00pm 16.8 - 0.9 34 7.0 - - - - - - - 0.0
25/02:30pm 16.6 - 0.3 33 7.1 - - - - - - - 0.0
25/02:00pm 16.5 - 0.6 34 6.9 - - - - - - - 0.0
25/01:30pm 15.2 - -0.1 35 6.5 - - - - - - - 0.0
25/01:00pm 15.0 - 0.8 38 6.1 - - - - - - - 0.0
25/12:30pm 14.7 - 0.9 39 5.9 - - - - - - - 0.0
25/12:00pm 14.6 - 1.2 40 5.8 - - - - - - - 0.0
25/11:30am 14.1 - 1.7 43 5.4 - - - - - - - 0.0
25/11:00am 13.1 - 3.5 52 4.3 - - - - - - - 0.0
25/10:30am 13.3 - 3.7 52 4.3 - - - - - - - 0.0
25/10:00am 13.0 - 4.4 56 3.9 - - - - - - - 0.0
25/09:30am 11.1 - 4.3 63 3.1 - - - - - - - 0.0
25/09:00am 10.7 - 4.4 65 2.8 - - - - - - - 1.0
25/08:30am 10.1 - 4.7 69 2.4 - - - - - - - 1.0
25/08:00am 9.2 - 4.4 72 2.1 - - - - - - - 1.0
25/07:30am 8.8 - 4.4 74 1.9 - - - - - - - 1.0
25/07:00am 7.7 - 4.1 78 1.6 - - - - - - - 1.0
25/06:30am 7.5 - 3.7 77 1.6 - - - - - - - 1.0
25/06:00am 7.7 - 3.6 75 1.8 - - - - - - - 1.0
25/05:30am 7.9 - 3.2 72 2.0 - - - - - - - 1.0
25/05:00am 8.3 - 3.2 70 2.2 - - - - - - - 1.0
25/04:30am 8.5 - 2.9 68 2.4 - - - - - - - 1.0
25/04:00am 8.9 - 2.5 64 2.7 - - - - - - - 1.0
25/03:30am 9.3 - 2.6 63 2.9 - - - - - - - 1.0
25/03:00am 9.9 - 2.5 60 3.2 - - - - - - - 1.0
25/02:30am 10.3 - 2.4 58 3.4 - - - - - - - 1.0
25/02:00am 10.7 - 2.5 57 3.5 - - - - - - - 1.0
25/01:30am 11.2 - 2.5 55 3.8 - - - - - - - 1.0
25/01:00am 11.8 - 2.5 53 4.0 - - - - - - - 1.0
25/12:30am 12.5 - 3.5 54 4.0 - - - - - - - 1.0
25/12:00am 13.0 - 4.2 55 4.0 - - - - - - - 1.0
 
Date/Time
EDT
Temp
°C
App
Temp
°C
Dew
Point
°C
Rel
Hum
%
Delta-T
°C
Wind Press
QNH
hPa
Press
MSL
hPa
Rain since
9am
mm
Dir  Spd
km/h
Gust
km/h
Spd
kts
Gust
kts
24/11:30pm 13.6 - 4.2 53 4.3 - - - - - - - 1.0
24/11:00pm 14.0 - 4.9 54 4.2 - - - - - - - 1.0
24/10:30pm 14.7 - 5.2 53 4.5 - - - - - - - 1.0
24/10:00pm 15.2 - 6.2 55 4.4 - - - - - - - 1.0
24/09:30pm 15.7 - 6.7 55 4.4 - - - - - - - 1.0
24/09:00pm 15.2 - 6.7 57 4.2 - - - - - - - 1.0
24/08:30pm 15.8 - 6.5 54 4.6 - - - - - - - 1.0
24/08:00pm 16.2 - 6.9 54 4.6 - - - - - - - 1.0
24/07:30pm 16.8 - 7.2 53 4.8 - - - - - - - 1.0
24/07:00pm 17.9 - 6.7 48 5.6 - - - - - - - 1.0
24/06:30pm 18.6 - 7.4 48 5.7 - - - - - - - 1.0
24/06:00pm 18.9 - 8.3 50 5.5 - - - - - - - 1.0
24/05:30pm 17.8 - 9.7 59 4.3 - - - - - - - 1.0
24/05:00pm 18.2 - 10.6 61 4.1 - - - - - - - 1.0
24/04:30pm 16.6 - 10.7 68 3.2 - - - - - - - 1.0
24/04:00pm 16.0 - 11.4 74 2.5 - - - - - - - 1.0
24/03:30pm 15.1 - 11.5 79 1.9 - - - - - - - 1.0
24/03:00pm 15.1 - 13.0 87 1.2 - - - - - - - 0.8
24/02:30pm 15.7 - 12.5 81 1.8 - - - - - - - 0.8
24/02:00pm 16.2 - 12.9 81 1.8 - - - - - - - 0.8
24/01:30pm 16.1 - 13.2 83 1.6 - - - - - - - 0.8
24/01:00pm 16.3 - 14.3 88 1.1 - - - - - - - 0.8
24/12:30pm 16.0 - 14.7 92 0.7 - - - - - - - 0.8
24/12:00pm 16.1 - 14.5 90 0.9 - - - - - - - 0.8
24/11:30am 16.1 - 16.1 100 0.0 - - - - - - - 0.8
24/11:00am 16.5 - 16.5 100 0.0 - - - - - - - 0.8
24/10:30am 17.7 - 17.7 100 0.0 - - - - - - - 0.6
24/10:00am 18.4 - 16.4 88 1.2 - - - - - - - 0.0
24/09:30am 19.6 - 16.3 81 2.0 - - - - - - - 0.0
24/09:00am 19.5 - 16.0 80 2.1 - - - - - - - 8.0
24/08:30am 18.6 - 15.8 84 1.7 - - - - - - - 8.0
24/08:00am 17.8 - 16.8 94 0.6 - - - - - - - 8.0
24/07:30am 17.0 - 17.0 100 0.0 - - - - - - - 8.0
24/07:00am 16.6 - 16.6 100 0.0 - - - - - - - 8.0
24/06:30am 16.7 - 16.7 100 0.0 - - - - - - - 8.0
24/06:00am 16.9 - 16.7 99 0.1 - - - - - - - 8.0
24/05:30am 17.1 - 17.1 100 0.0 - - - - - - - 8.0
24/05:00am 17.1 - 17.1 100 0.0 - - - - - - - 8.0
24/04:30am 18.2 - 17.0 93 0.7 - - - - - - - 5.6
24/04:00am 18.0 - 18.0 100 0.0 - - - - - - - 5.6
24/03:30am 17.9 - 17.9 100 0.0 - - - - - - - 5.6
24/03:00am 17.8 - 17.8 100 0.0 - - - - - - - 5.6
24/02:30am 17.8 - 17.8 100 0.0 - - - - - - - 5.6
24/02:00am 18.1 - 17.6 97 0.3 - - - - - - - 5.6
24/01:30am 17.9 - 17.9 100 0.0 - - - - - - - 5.6
24/01:00am 17.6 - 17.6 100 0.0 - - - - - - - 5.6
24/12:30am 17.4 - 17.4 100 0.0 - - - - - - - 5.6
24/12:00am 17.6 - 17.0 96 0.4 - - - - - - - 5.6
 
Date/Time
EDT
Temp
°C
App
Temp
°C
Dew
Point
°C
Rel
Hum
%
Delta-T
°C
Wind Press
QNH
hPa
Press
MSL
hPa
Rain since
9am
mm
Dir  Spd
km/h
Gust
km/h
Spd
kts
Gust
kts
23/11:30pm 17.6 - 17.0 96 0.4 - - - - - - - 5.0
23/11:00pm 17.5 - 16.7 95 0.5 - - - - - - - 5.0
23/10:30pm 17.4 - 16.1 92 0.8 - - - - - - - 5.0
23/10:00pm 17.6 - 16.1 91 0.9 - - - - - - - 5.0
23/09:30pm 18.0 - 16.0 88 1.2 - - - - - - - 5.0
23/09:00pm 18.1 - 16.6 91 0.9 - - - - - - - 5.0
23/08:30pm 18.2 - 16.5 90 1.0 - - - - - - - 5.0
23/08:00pm 18.5 - 16.3 87 1.3 - - - - - - - 5.0
23/07:30pm 19.0 - 15.9 82 1.8 - - - - - - - 4.8
23/07:00pm 19.1 - 15.6 80 2.1 - - - - - - - 4.8
23/06:30pm 19.6 - 16.3 81 2.0 - - - - - - - 4.8
23/06:00pm 19.4 - 15.1 76 2.5 - - - - - - - 4.6
23/05:30pm 20.5 - 14.6 69 3.5 - - - - - - - 4.6
23/05:00pm 21.6 - 18.2 81 2.1 - - - - - - - 4.6
23/04:30pm 20.8 - 17.8 83 1.9 - - - - - - - 4.6
23/04:00pm 20.3 - 17.5 84 1.7 - - - - - - - 4.6
23/03:30pm 20.2 - 16.8 81 2.1 - - - - - - - 3.8
23/03:00pm 24.4 - 16.4 61 4.9 - - - - - - - 0.2
23/02:30pm 25.5 - 15.5 54 6.1 - - - - - - - 0.2
23/02:00pm 26.3 - 14.7 48 7.0 - - - - - - - 0.2
23/01:30pm 28.3 - 12.2 37 9.4 - - - - - - - 0.2
23/01:00pm 27.9 - 12.7 39 8.9 - - - - - - - 0.2
23/12:30pm 27.4 - 12.6 40 8.7 - - - - - - - 0.2
23/12:00pm 26.7 - 14.1 46 7.5 - - - - - - - 0.2

Other formats

Comma delimited format used in spreadsheet applications
http://www.bom.gov.au/fwo/IDN60801/IDN60801.94797.axf

JavaScript Object Notation format (JSON) in row-major order
http://www.bom.gov.au/fwo/IDN60801/IDN60801.94797.json

Data quality

Most of these data are generated automatically and are frequently updated. Quality checks on data are not normally performed. It is possible for incorrect values to appear. Refer to information at About Latest Weather Observations and please check the disclaimer before using these data.